sensor_id;sensor_type;location;lat;lon;timestamp;pressure;altitude;pressure_sealevel;temperature;humidity
37856;BME280;23694;43.274;26.924;2024-03-02T00:00:22;98663.81;;;7.51;100.00
37856;BME280;23694;43.274;26.924;2024-03-02T00:02:50;98677.66;;;7.38;100.00
37856;BME280;23694;43.274;26.924;2024-03-02T00:05:18;98670.88;;;7.35;100.00
37856;BME280;23694;43.274;26.924;2024-03-02T00:07:47;98661.75;;;7.42;100.00
37856;BME280;23694;43.274;26.924;2024-03-02T00:10:20;98665.47;;;7.38;100.00
37856;BME280;23694;43.274;26.924;2024-03-02T00:12:51;98666.22;;;7.40;100.00
37856;BME280;23694;43.274;26.924;2024-03-02T00:17:55;98657.00;;;7.49;100.00
37856;BME280;23694;43.274;26.924;2024-03-02T00:20:23;98652.44;;;7.52;100.00
37856;BME280;23694;43.274;26.924;2024-03-02T00:22:50;98655.06;;;7.52;100.00
37856;BME280;23694;43.274;26.924;2024-03-02T00:25:16;98663.91;;;7.50;100.00
37856;BME280;23694;43.274;26.924;2024-03-02T00:27:47;98653.09;;;7.56;100.00
37856;BME280;23694;43.274;26.924;2024-03-02T00:30:58;98651.06;;;7.47;100.00
37856;BME280;23694;43.274;26.924;2024-03-02T00:33:27;98653.09;;;7.42;100.00
37856;BME280;23694;43.274;26.924;2024-03-02T00:35:56;98650.50;;;7.42;100.00
37856;BME280;23694;43.274;26.924;2024-03-02T00:38:23;98646.31;;;7.53;100.00
37856;BME280;23694;43.274;26.924;2024-03-02T00:40:49;98633.56;;;7.49;100.00
37856;BME280;23694;43.274;26.924;2024-03-02T00:46:05;98638.94;;;7.46;100.00
37856;BME280;23694;43.274;26.924;2024-03-02T00:48:31;98647.78;;;7.57;100.00
37856;BME280;23694;43.274;26.924;2024-03-02T00:50:57;98649.19;;;7.35;100.00
37856;BME280;23694;43.274;26.924;2024-03-02T00:53:26;98642.50;;;7.45;100.00
37856;BME280;23694;43.274;26.924;2024-03-02T00:55:52;98630.19;;;7.61;100.00
37856;BME280;23694;43.274;26.924;2024-03-02T00:58:25;98625.53;;;7.52;100.00
37856;BME280;23694;43.274;26.924;2024-03-02T01:00:53;98623.69;;;7.54;100.00
37856;BME280;23694;43.274;26.924;2024-03-02T01:03:19;98621.72;;;7.57;100.00
37856;BME280;23694;43.274;26.924;2024-03-02T01:05:46;98621.91;;;7.54;100.00
37856;BME280;23694;43.274;26.924;2024-03-02T01:08:12;98614.84;;;7.56;100.00
37856;BME280;23694;43.274;26.924;2024-03-02T01:10:40;98608.34;;;7.49;100.00
37856;BME280;23694;43.274;26.924;2024-03-02T01:13:07;98610.84;;;7.51;100.00
37856;BME280;23694;43.274;26.924;2024-03-02T01:15:34;98601.91;;;7.55;100.00
37856;BME280;23694;43.274;26.924;2024-03-02T01:18:00;98592.59;;;7.51;100.00
37856;BME280;23694;43.274;26.924;2024-03-02T01:20:26;98610.38;;;7.44;100.00
37856;BME280;23694;43.274;26.924;2024-03-02T01:22:53;98612.16;;;7.44;100.00
37856;BME280;23694;43.274;26.924;2024-03-02T01:25:19;98614.38;;;7.50;100.00
37856;BME280;23694;43.274;26.924;2024-03-02T01:27:46;98607.31;;;7.52;100.00
37856;BME280;23694;43.274;26.924;2024-03-02T01:30:12;98605.53;;;7.52;100.00
37856;BME280;23694;43.274;26.924;2024-03-02T01:32:38;98610.00;;;7.36;100.00
37856;BME280;23694;43.274;26.924;2024-03-02T01:35:05;98594.75;;;7.44;100.00
37856;BME280;23694;43.274;26.924;2024-03-02T01:37:33;98601.53;;;7.47;100.00
37856;BME280;23694;43.274;26.924;2024-03-02T01:39:59;98602.94;;;7.38;100.00
37856;BME280;23694;43.274;26.924;2024-03-02T01:42:25;98592.03;;;7.46;100.00
37856;BME280;23694;43.274;26.924;2024-03-02T01:44:51;98591.28;;;7.58;100.00
37856;BME280;23694;43.274;26.924;2024-03-02T01:47:17;98592.13;;;7.44;100.00
37856;BME280;23694;43.274;26.924;2024-03-02T01:49:44;98582.47;;;7.46;100.00
37856;BME280;23694;43.274;26.924;2024-03-02T01:52:10;98584.50;;;7.55;100.00
37856;BME280;23694;43.274;26.924;2024-03-02T01:54:37;98577.44;;;7.43;100.00
37856;BME280;23694;43.274;26.924;2024-03-02T01:57:03;98579.03;;;7.31;100.00
37856;BME280;23694;43.274;26.924;2024-03-02T01:59:30;98575.66;;;7.44;100.00
37856;BME280;23694;43.274;26.924;2024-03-02T02:01:57;98573.63;;;7.49;100.00
37856;BME280;23694;43.274;26.924;2024-03-02T02:04:27;98564.28;;;7.59;100.00
37856;BME280;23694;43.274;26.924;2024-03-02T02:06:54;98576.13;;;7.50;100.00
37856;BME280;23694;43.274;26.924;2024-03-02T02:09:21;98583.47;;;7.44;100.00
37856;BME280;23694;43.274;26.924;2024-03-02T02:11:47;98580.78;;;7.17;100.00
37856;BME280;23694;43.274;26.924;2024-03-02T02:14:13;98587.97;;;7.27;100.00
37856;BME280;23694;43.274;26.924;2024-03-02T02:16:39;98587.03;;;7.28;100.00
37856;BME280;23694;43.274;26.924;2024-03-02T02:19:06;98591.59;;;7.39;100.00
37856;BME280;23694;43.274;26.924;2024-03-02T02:21:32;98593.72;;;7.32;100.00
37856;BME280;23694;43.274;26.924;2024-03-02T02:23:59;98602.63;;;7.14;100.00
37856;BME280;23694;43.274;26.924;2024-03-02T02:26:25;98589.91;;;7.24;100.00
37856;BME280;23694;43.274;26.924;2024-03-02T02:28:52;98584.47;;;7.13;100.00
37856;BME280;23694;43.274;26.924;2024-03-02T02:31:19;98585.50;;;7.10;100.00
37856;BME280;23694;43.274;26.924;2024-03-02T02:33:45;98589.44;;;7.17;100.00
37856;BME280;23694;43.274;26.924;2024-03-02T02:36:11;98583.97;;;7.22;100.00
37856;BME280;23694;43.274;26.924;2024-03-02T02:38:44;98584.78;;;7.22;100.00
37856;BME280;23694;43.274;26.924;2024-03-02T02:41:11;98592.38;;;7.11;100.00
37856;BME280;23694;43.274;26.924;2024-03-02T02:43:37;98577.22;;;7.04;100.00
37856;BME280;23694;43.274;26.924;2024-03-02T02:46:05;98575.09;;;7.10;100.00
37856;BME280;23694;43.274;26.924;2024-03-02T02:48:31;98566.56;;;7.22;100.00
37856;BME280;23694;43.274;26.924;2024-03-02T02:50:57;98573.06;;;7.44;100.00
37856;BME280;23694;43.274;26.924;2024-03-02T02:53:23;98565.53;;;7.39;100.00
37856;BME280;23694;43.274;26.924;2024-03-02T02:55:49;98566.47;;;7.38;100.00
37856;BME280;23694;43.274;26.924;2024-03-02T02:58:16;98556.22;;;7.49;100.00
37856;BME280;23694;43.274;26.924;2024-03-02T03:00:42;98545.69;;;7.51;100.00
37856;BME280;23694;43.274;26.924;2024-03-02T03:03:09;98551.66;;;7.53;100.00
37856;BME280;23694;43.274;26.924;2024-03-02T03:05:35;98553.13;;;7.57;100.00
37856;BME280;23694;43.274;26.924;2024-03-02T03:08:02;98561.69;;;7.59;100.00
37856;BME280;23694;43.274;26.924;2024-03-02T03:10:28;98553.31;;;7.54;100.00
37856;BME280;23694;43.274;26.924;2024-03-02T03:12:59;98551.75;;;7.51;100.00
37856;BME280;23694;43.274;26.924;2024-03-02T03:15:25;98548.84;;;7.56;100.00
37856;BME280;23694;43.274;26.924;2024-03-02T03:17:52;98540.75;;;7.46;100.00
37856;BME280;23694;43.274;26.924;2024-03-02T03:20:19;98551.75;;;7.51;100.00
37856;BME280;23694;43.274;26.924;2024-03-02T03:22:47;98544.22;;;7.47;100.00
37856;BME280;23694;43.274;26.924;2024-03-02T03:25:13;98558.16;;;7.46;100.00
37856;BME280;23694;43.274;26.924;2024-03-02T03:27:48;98558.53;;;7.54;100.00
37856;BME280;23694;43.274;26.924;2024-03-02T03:30:31;98539.56;;;7.52;100.00
37856;BME280;23694;43.274;26.924;2024-03-02T03:32:58;98547.53;;;7.63;100.00
37856;BME280;23694;43.274;26.924;2024-03-02T03:35:25;98557.75;;;7.66;100.00
37856;BME280;23694;43.274;26.924;2024-03-02T03:37:51;98555.34;;;7.63;100.00
37856;BME280;23694;43.274;26.924;2024-03-02T03:40:17;98560.38;;;7.66;100.00
37856;BME280;23694;43.274;26.924;2024-03-02T03:42:44;98563.66;;;7.55;100.00
37856;BME280;23694;43.274;26.924;2024-03-02T03:45:10;98562.72;;;7.56;100.00
37856;BME280;23694;43.274;26.924;2024-03-02T03:47:37;98573.91;;;7.44;100.00
37856;BME280;23694;43.274;26.924;2024-03-02T03:50:03;98573.81;;;7.46;100.00
37856;BME280;23694;43.274;26.924;2024-03-02T03:52:32;98571.00;;;7.49;100.00
37856;BME280;23694;43.274;26.924;2024-03-02T03:54:59;98578.63;;;7.52;100.00
37856;BME280;23694;43.274;26.924;2024-03-02T03:57:26;98580.50;;;7.50;100.00
37856;BME280;23694;43.274;26.924;2024-03-02T03:59:53;98577.63;;;7.40;100.00
37856;BME280;23694;43.274;26.924;2024-03-02T04:02:20;98582.91;;;7.53;100.00
37856;BME280;23694;43.274;26.924;2024-03-02T04:04:46;98568.88;;;7.41;100.00
37856;BME280;23694;43.274;26.924;2024-03-02T04:07:12;98575.13;;;7.39;100.00
37856;BME280;23694;43.274;26.924;2024-03-02T04:09:38;98575.75;;;7.42;100.00
37856;BME280;23694;43.274;26.924;2024-03-02T04:12:04;98572.50;;;7.39;100.00
37856;BME280;23694;43.274;26.924;2024-03-02T04:14:31;98570.28;;;7.32;100.00
37856;BME280;23694;43.274;26.924;2024-03-02T04:16:57;98574.84;;;7.43;100.00
37856;BME280;23694;43.274;26.924;2024-03-02T04:19:23;98579.75;;;7.48;100.00
37856;BME280;23694;43.274;26.924;2024-03-02T04:21:50;98583.47;;;7.44;100.00
37856;BME280;23694;43.274;26.924;2024-03-02T04:24:17;98574.94;;;7.42;100.00
37856;BME280;23694;43.274;26.924;2024-03-02T04:26:44;98582.47;;;7.46;100.00
37856;BME280;23694;43.274;26.924;2024-03-02T04:29:10;98588.69;;;7.44;100.00
37856;BME280;23694;43.274;26.924;2024-03-02T04:31:36;98585.16;;;7.45;100.00
37856;BME280;23694;43.274;26.924;2024-03-02T04:34:02;98577.81;;;7.37;100.00
37856;BME280;23694;43.274;26.924;2024-03-02T04:36:28;98576.03;;;7.38;100.00
37856;BME280;23694;43.274;26.924;2024-03-02T04:38:56;98579.22;;;7.43;100.00
37856;BME280;23694;43.274;26.924;2024-03-02T04:41:22;98580.59;;;7.48;100.00
37856;BME280;23694;43.274;26.924;2024-03-02T04:43:48;98577.72;;;7.39;100.00
37856;BME280;23694;43.274;26.924;2024-03-02T04:46:14;98584.31;;;7.30;100.00
37856;BME280;23694;43.274;26.924;2024-03-02T04:48:41;98582.56;;;7.30;100.00
37856;BME280;23694;43.274;26.924;2024-03-02T04:51:07;98576.69;;;7.27;100.00
37856;BME280;23694;43.274;26.924;2024-03-02T04:53:33;98581.25;;;7.23;100.00
37856;BME280;23694;43.274;26.924;2024-03-02T04:55:59;98579.50;;;7.24;100.00
37856;BME280;23694;43.274;26.924;2024-03-02T04:58:44;98575.03;;;7.26;100.00
37856;BME280;23694;43.274;26.924;2024-03-02T05:01:10;98572.50;;;7.24;100.00
37856;BME280;23694;43.274;26.924;2024-03-02T05:03:36;98573.53;;;7.36;100.00
37856;BME280;23694;43.274;26.924;2024-03-02T05:06:03;98575.22;;;7.37;100.00
37856;BME280;23694;43.274;26.924;2024-03-02T05:08:29;98581.25;;;7.38;100.00
37856;BME280;23694;43.274;26.924;2024-03-02T05:10:55;98585.16;;;7.45;100.00
37856;BME280;23694;43.274;26.924;2024-03-02T05:13:41;98578.00;;;7.34;100.00
37856;BME280;23694;43.274;26.924;2024-03-02T05:16:07;98580.97;;;7.28;100.00
37856;BME280;23694;43.274;26.924;2024-03-02T05:18:34;98581.06;;;7.26;100.00
37856;BME280;23694;43.274;26.924;2024-03-02T05:21:03;98571.75;;;7.37;100.00
37856;BME280;23694;43.274;26.924;2024-03-02T05:23:29;98568.59;;;7.31;100.00
37856;BME280;23694;43.274;26.924;2024-03-02T05:25:56;98573.34;;;7.39;100.00
37856;BME280;23694;43.274;26.924;2024-03-02T05:28:23;98570.09;;;7.36;100.00
37856;BME280;23694;43.274;26.924;2024-03-02T05:30:49;98568.41;;;7.35;100.00
37856;BME280;23694;43.274;26.924;2024-03-02T05:33:16;98576.22;;;7.35;100.00
37856;BME280;23694;43.274;26.924;2024-03-02T05:35:44;98585.34;;;7.42;100.00
37856;BME280;23694;43.274;26.924;2024-03-02T05:38:10;98574.94;;;7.42;100.00
37856;BME280;23694;43.274;26.924;2024-03-02T05:40:36;98571.56;;;7.40;100.00
37856;BME280;23694;43.274;26.924;2024-03-02T05:43:02;98570.28;;;7.32;100.00
37856;BME280;23694;43.274;26.924;2024-03-02T05:45:28;98577.53;;;7.27;100.00
37856;BME280;23694;43.274;26.924;2024-03-02T05:47:56;98580.50;;;7.21;100.00
37856;BME280;23694;43.274;26.924;2024-03-02T05:50:22;98576.41;;;7.17;100.00
37856;BME280;23694;43.274;26.924;2024-03-02T05:52:48;98579.28;;;7.13;100.00
37856;BME280;23694;43.274;26.924;2024-03-02T05:55:14;98586.84;;;7.17;100.00
37856;BME280;23694;43.274;26.924;2024-03-02T05:57:40;98590.53;;;7.13;100.00
37856;BME280;23694;43.274;26.924;2024-03-02T06:00:07;98589.59;;;7.14;100.00
37856;BME280;23694;43.274;26.924;2024-03-02T06:02:51;98586.00;;;7.17;100.00
37856;BME280;23694;43.274;26.924;2024-03-02T06:05:18;98594.53;;;7.05;100.00
37856;BME280;23694;43.274;26.924;2024-03-02T06:07:45;98602.97;;;7.08;100.00
37856;BME280;23694;43.274;26.924;2024-03-02T06:10:11;98589.59;;;7.14;100.00
37856;BME280;23694;43.274;26.924;2024-03-02T06:12:37;98590.66;;;7.26;100.00
37856;BME280;23694;43.274;26.924;2024-03-02T06:15:07;98592.41;;;7.25;100.00
37856;BME280;23694;43.274;26.924;2024-03-02T06:17:35;98601.16;;;7.24;100.00
37856;BME280;23694;43.274;26.924;2024-03-02T06:20:01;98594.75;;;7.30;100.00
37856;BME280;23694;43.274;26.924;2024-03-02T06:22:28;98593.91;;;7.29;100.00
37856;BME280;23694;43.274;26.924;2024-03-02T06:24:54;98591.78;;;7.36;100.00
37856;BME280;23694;43.274;26.924;2024-03-02T06:27:20;98581.16;;;7.39;100.00
37856;BME280;23694;43.274;26.924;2024-03-02T06:29:47;98591.41;;;7.42;100.00
37856;BME280;23694;43.274;26.924;2024-03-02T06:32:14;98586.28;;;7.41;100.00
37856;BME280;23694;43.274;26.924;2024-03-02T06:34:40;98582.38;;;7.48;100.00
37856;BME280;23694;43.274;26.924;2024-03-02T06:37:07;98588.13;;;7.53;100.00
37856;BME280;23694;43.274;26.924;2024-03-02T06:39:34;98589.81;;;7.40;100.00
37856;BME280;23694;43.274;26.924;2024-03-02T06:42:00;98588.13;;;7.39;100.00
37856;BME280;23694;43.274;26.924;2024-03-02T06:44:27;98581.91;;;7.41;100.00
37856;BME280;23694;43.274;26.924;2024-03-02T06:46:54;98598.00;;;7.48;100.00
37856;BME280;23694;43.274;26.924;2024-03-02T06:49:20;98590.75;;;7.53;100.00
37856;BME280;23694;43.274;26.924;2024-03-02T06:51:46;98586.06;;;7.58;100.00
37856;BME280;23694;43.274;26.924;2024-03-02T06:54:13;98575.28;;;7.64;100.00
37856;BME280;23694;43.274;26.924;2024-03-02T06:56:39;98575.72;;;7.71;100.00
37856;BME280;23694;43.274;26.924;2024-03-02T06:59:06;98571.91;;;7.62;100.00
37856;BME280;23694;43.274;26.924;2024-03-02T07:01:33;98570.25;;;7.61;100.00
37856;BME280;23694;43.274;26.924;2024-03-02T07:04:00;98571.25;;;7.73;100.00
37856;BME280;23694;43.274;26.924;2024-03-02T07:06:26;98572.63;;;7.78;100.00
37856;BME280;23694;43.274;26.924;2024-03-02T07:08:56;98572.44;;;7.95;100.00
37856;BME280;23694;43.274;26.924;2024-03-02T07:11:22;98572.91;;;7.88;100.00
37856;BME280;23694;43.274;26.924;2024-03-02T07:13:48;98575.44;;;7.89;100.00
37856;BME280;23694;43.274;26.924;2024-03-02T07:16:15;98560.63;;;7.90;100.00
37856;BME280;23694;43.274;26.924;2024-03-02T07:18:47;98556.78;;;7.95;100.00
37856;BME280;23694;43.274;26.924;2024-03-02T07:21:17;98553.97;;;7.99;100.00
37856;BME280;23694;43.274;26.924;2024-03-02T07:23:44;98563.13;;;7.91;100.00
37856;BME280;23694;43.274;26.924;2024-03-02T07:26:11;98566.19;;;7.98;100.00
37856;BME280;23694;43.274;26.924;2024-03-02T07:28:37;98575.19;;;8.07;100.00
37856;BME280;23694;43.274;26.924;2024-03-02T07:31:04;98574.56;;;8.03;100.00
37856;BME280;23694;43.274;26.924;2024-03-02T07:33:31;98567.66;;;8.02;100.00
37856;BME280;23694;43.274;26.924;2024-03-02T07:35:59;98573.53;;;8.06;100.00
37856;BME280;23694;43.274;26.924;2024-03-02T07:38:27;98586.22;;;7.98;100.00
37856;BME280;23694;43.274;26.924;2024-03-02T07:40:54;98579.69;;;8.05;100.00
37856;BME280;23694;43.274;26.924;2024-03-02T07:43:21;98587.94;;;8.11;100.00
37856;BME280;23694;43.274;26.924;2024-03-02T07:45:48;98587.44;;;8.19;100.00
37856;BME280;23694;43.274;26.924;2024-03-02T07:48:14;98572.53;;;8.21;100.00
37856;BME280;23694;43.274;26.924;2024-03-02T07:50:41;98577.25;;;8.28;100.00
37856;BME280;23694;43.274;26.924;2024-03-02T07:53:09;98578.78;;;8.18;100.00
37856;BME280;23694;43.274;26.924;2024-03-02T07:55:36;98569.72;;;8.24;100.00
37856;BME280;23694;43.274;26.924;2024-03-02T07:58:03;98560.09;;;8.12;100.00
37856;BME280;23694;43.274;26.924;2024-03-02T08:00:30;98572.25;;;8.25;100.00
37856;BME280;23694;43.274;26.924;2024-03-02T08:02:57;98564.69;;;8.35;100.00
37856;BME280;23694;43.274;26.924;2024-03-02T08:05:23;98561.50;;;8.30;100.00
37856;BME280;23694;43.274;26.924;2024-03-02T08:07:49;98565.78;;;8.31;100.00
37856;BME280;23694;43.274;26.924;2024-03-02T08:10:19;98568.28;;;8.47;100.00
37856;BME280;23694;43.274;26.924;2024-03-02T08:12:45;98570.28;;;8.56;100.00
37856;BME280;23694;43.274;26.924;2024-03-02T08:15:12;98562.88;;;8.63;100.00
37856;BME280;23694;43.274;26.924;2024-03-02T08:17:41;98564.66;;;8.62;100.00
37856;BME280;23694;43.274;26.924;2024-03-02T08:20:12;98561.34;;;8.73;100.00
37856;BME280;23694;43.274;26.924;2024-03-02T08:22:38;98569.69;;;8.78;100.00
37856;BME280;23694;43.274;26.924;2024-03-02T08:25:05;98571.28;;;8.80;100.00
37856;BME280;23694;43.274;26.924;2024-03-02T08:27:32;98570.72;;;8.63;100.00
37856;BME280;23694;43.274;26.924;2024-03-02T08:29:59;98566.63;;;8.58;100.00
37856;BME280;23694;43.274;26.924;2024-03-02T08:32:25;98572.81;;;8.57;100.00
37856;BME280;23694;43.274;26.924;2024-03-02T08:34:51;98579.38;;;8.63;100.00
37856;BME280;23694;43.274;26.924;2024-03-02T08:37:17;98567.69;;;8.69;100.00
37856;BME280;23694;43.274;26.924;2024-03-02T08:39:45;98566.03;;;8.80;100.00
37856;BME280;23694;43.274;26.924;2024-03-02T08:42:14;98574.28;;;8.74;100.00
37856;BME280;23694;43.274;26.924;2024-03-02T08:44:40;98582.66;;;8.79;100.00
37856;BME280;23694;43.274;26.924;2024-03-02T08:47:07;98566.25;;;8.77;100.00
37856;BME280;23694;43.274;26.924;2024-03-02T08:49:33;98583.50;;;8.80;100.00
37856;BME280;23694;43.274;26.924;2024-03-02T08:52:00;98571.16;;;8.82;100.00
37856;BME280;23694;43.274;26.924;2024-03-02T08:54:26;98576.91;;;8.87;100.00
37856;BME280;23694;43.274;26.924;2024-03-02T08:56:53;98579.53;;;8.87;100.00
37856;BME280;23694;43.274;26.924;2024-03-02T08:59:19;98574.94;;;9.03;100.00
37856;BME280;23694;43.274;26.924;2024-03-02T09:01:45;98580.88;;;8.93;100.00
37856;BME280;23694;43.274;26.924;2024-03-02T09:04:12;98573.25;;;8.89;100.00
37856;BME280;23694;43.274;26.924;2024-03-02T09:06:38;98583.91;;;8.99;100.00
37856;BME280;23694;43.274;26.924;2024-03-02T09:09:04;98585.50;;;9.02;100.00
37856;BME280;23694;43.274;26.924;2024-03-02T09:11:33;98591.97;;;9.09;100.00
37856;BME280;23694;43.274;26.924;2024-03-02T09:14:00;98586.69;;;9.10;100.00
37856;BME280;23694;43.274;26.924;2024-03-02T09:16:26;98587.69;;;9.08;100.00
37856;BME280;23694;43.274;26.924;2024-03-02T09:18:57;98580.09;;;9.17;100.00
37856;BME280;23694;43.274;26.924;2024-03-02T09:21:23;98581.44;;;9.10;100.00
37856;BME280;23694;43.274;26.924;2024-03-02T09:23:49;98582.81;;;9.29;100.00
37856;BME280;23694;43.274;26.924;2024-03-02T09:26:16;98585.91;;;9.46;100.00
37856;BME280;23694;43.274;26.924;2024-03-02T09:28:43;98589.47;;;9.45;100.00
37856;BME280;23694;43.274;26.924;2024-03-02T09:31:10;98588.66;;;9.32;100.00
37856;BME280;23694;43.274;26.924;2024-03-02T09:33:36;98576.91;;;9.50;100.00
37856;BME280;23694;43.274;26.924;2024-03-02T09:36:02;98570.00;;;9.62;100.00
37856;BME280;23694;43.274;26.924;2024-03-02T09:38:28;98578.75;;;9.87;100.00
37856;BME280;23694;43.274;26.924;2024-03-02T09:40:55;98575.06;;;9.89;100.00
37856;BME280;23694;43.274;26.924;2024-03-02T09:43:21;98575.81;;;9.91;100.00
37856;BME280;23694;43.274;26.924;2024-03-02T09:45:48;98584.22;;;10.07;100.00
37856;BME280;23694;43.274;26.924;2024-03-02T09:48:14;98565.47;;;10.13;100.00
37856;BME280;23694;43.274;26.924;2024-03-02T09:50:44;98570.81;;;10.12;100.00
37856;BME280;23694;43.274;26.924;2024-03-02T09:53:11;98573.13;;;9.80;100.00
37856;BME280;23694;43.274;26.924;2024-03-02T09:55:38;98559.75;;;9.59;100.00
37856;BME280;23694;43.274;26.924;2024-03-02T09:58:09;98567.28;;;10.00;100.00
37856;BME280;23694;43.274;26.924;2024-03-02T10:00:35;98567.97;;;10.39;100.00
37856;BME280;23694;43.274;26.924;2024-03-02T10:03:02;98562.78;;;10.74;100.00
37856;BME280;23694;43.274;26.924;2024-03-02T10:05:28;98558.38;;;10.74;100.00
37856;BME280;23694;43.274;26.924;2024-03-02T10:08:02;98548.75;;;10.86;100.00
37856;BME280;23694;43.274;26.924;2024-03-02T10:10:40;98559.78;;;10.20;100.00
37856;BME280;23694;43.274;26.924;2024-03-02T10:13:11;98548.69;;;10.64;100.00
37856;BME280;23694;43.274;26.924;2024-03-02T10:15:39;98540.41;;;10.92;100.00
37856;BME280;23694;43.274;26.924;2024-03-02T10:18:11;98538.44;;;11.18;100.00
37856;BME280;23694;43.274;26.924;2024-03-02T10:20:41;98538.56;;;11.39;100.00
37856;BME280;23694;43.274;26.924;2024-03-02T10:23:14;98528.69;;;11.42;100.00
37856;BME280;23694;43.274;26.924;2024-03-02T10:25:41;98515.31;;;11.46;100.00
37856;BME280;23694;43.274;26.924;2024-03-02T10:28:08;98521.25;;;11.03;100.00
37856;BME280;23694;43.274;26.924;2024-03-02T10:30:35;98524.34;;;10.86;100.00
37856;BME280;23694;43.274;26.924;2024-03-02T10:33:02;98518.53;;;11.38;100.00
37856;BME280;23694;43.274;26.924;2024-03-02T10:35:29;98511.50;;;11.72;100.00
37856;BME280;23694;43.274;26.924;2024-03-02T10:38:01;98516.03;;;11.59;100.00
37856;BME280;23694;43.274;26.924;2024-03-02T10:40:29;98513.25;;;10.82;100.00
37856;BME280;23694;43.274;26.924;2024-03-02T10:42:56;98512.13;;;11.31;100.00
37856;BME280;23694;43.274;26.924;2024-03-02T10:45:24;98508.03;;;11.60;100.00
37856;BME280;23694;43.274;26.924;2024-03-02T10:47:50;98505.75;;;11.89;100.00
37856;BME280;23694;43.274;26.924;2024-03-02T10:50:17;98504.44;;;11.61;100.00
37856;BME280;23694;43.274;26.924;2024-03-02T10:52:43;98507.34;;;11.25;100.00
37856;BME280;23694;43.274;26.924;2024-03-02T10:55:10;98497.53;;;11.60;100.00
37856;BME280;23694;43.274;26.924;2024-03-02T10:57:50;98491.34;;;11.61;100.00
37856;BME280;23694;43.274;26.924;2024-03-02T11:00:18;98494.97;;;11.27;100.00
37856;BME280;23694;43.274;26.924;2024-03-02T11:02:57;98493.53;;;11.34;100.00
37856;BME280;23694;43.274;26.924;2024-03-02T11:05:27;98486.16;;;11.05;100.00
37856;BME280;23694;43.274;26.924;2024-03-02T11:08:01;98482.06;;;10.90;100.00
37856;BME280;23694;43.274;26.924;2024-03-02T11:10:58;98485.06;;;11.41;100.00
37856;BME280;23694;43.274;26.924;2024-03-02T11:13:33;98485.16;;;11.51;100.00
37856;BME280;23694;43.274;26.924;2024-03-02T11:16:05;98480.22;;;11.69;100.00
37856;BME280;23694;43.274;26.924;2024-03-02T11:18:32;98482.75;;;11.70;100.00
37856;BME280;23694;43.274;26.924;2024-03-02T11:20:59;98475.22;;;11.66;100.00
37856;BME280;23694;43.274;26.924;2024-03-02T11:23:33;98494.34;;;11.79;100.00
37856;BME280;23694;43.274;26.924;2024-03-02T11:28:47;98472.75;;;12.07;100.00
37856;BME280;23694;43.274;26.924;2024-03-02T11:31:14;98481.69;;;12.16;100.00
37856;BME280;23694;43.274;26.924;2024-03-02T11:33:41;98472.50;;;12.43;100.00
37856;BME280;23694;43.274;26.924;2024-03-02T11:36:10;98462.72;;;12.33;100.00
37856;BME280;23694;43.274;26.924;2024-03-02T11:38:36;98475.88;;;12.33;100.00
37856;BME280;23694;43.274;26.924;2024-03-02T11:41:06;98462.47;;;12.16;100.00
37856;BME280;23694;43.274;26.924;2024-03-02T11:43:38;98468.69;;;12.15;100.00
37856;BME280;23694;43.274;26.924;2024-03-02T11:46:05;98465.59;;;12.93;100.00
37856;BME280;23694;43.274;26.924;2024-03-02T11:48:35;98458.78;;;13.11;100.00
37856;BME280;23694;43.274;26.924;2024-03-02T11:51:03;98465.50;;;12.74;100.00
37856;BME280;23694;43.274;26.924;2024-03-02T11:53:30;98460.38;;;12.30;100.00
37856;BME280;23694;43.274;26.924;2024-03-02T11:55:58;98461.91;;;12.75;100.00
37856;BME280;23694;43.274;26.924;2024-03-02T11:58:25;98460.66;;;13.20;100.00
37856;BME280;23694;43.274;26.924;2024-03-02T12:00:54;98452.84;;;13.49;100.00
37856;BME280;23694;43.274;26.924;2024-03-02T12:03:23;98457.56;;;13.55;100.00
37856;BME280;23694;43.274;26.924;2024-03-02T12:05:52;98456.53;;;12.76;100.00
37856;BME280;23694;43.274;26.924;2024-03-02T12:08:19;98456.13;;;13.32;100.00
37856;BME280;23694;43.274;26.924;2024-03-02T12:11:01;98454.59;;;13.89;100.00
37856;BME280;23694;43.274;26.924;2024-03-02T12:13:28;98453.75;;;13.79;99.57
37856;BME280;23694;43.274;26.924;2024-03-02T12:15:56;98449.78;;;13.44;100.00
37856;BME280;23694;43.274;26.924;2024-03-02T12:18:22;98445.72;;;13.71;100.00
37856;BME280;23694;43.274;26.924;2024-03-02T12:20:49;98445.31;;;13.25;100.00
37856;BME280;23694;43.274;26.924;2024-03-02T12:23:19;98444.91;;;13.30;100.00
37856;BME280;23694;43.274;26.924;2024-03-02T12:25:46;98449.50;;;13.47;100.00
37856;BME280;23694;43.274;26.924;2024-03-02T12:28:12;98450.53;;;13.66;100.00
37856;BME280;23694;43.274;26.924;2024-03-02T12:30:38;98443.91;;;13.71;100.00
37856;BME280;23694;43.274;26.924;2024-03-02T12:33:05;98437.97;;;13.88;98.72
37856;BME280;23694;43.274;26.924;2024-03-02T12:35:31;98437.69;;;14.11;97.09
37856;BME280;23694;43.274;26.924;2024-03-02T12:37:57;98446.00;;;14.16;96.63
37856;BME280;23694;43.274;26.924;2024-03-02T12:40:24;98446.50;;;13.61;99.62
37856;BME280;23694;43.274;26.924;2024-03-02T12:42:50;98448.34;;;14.09;96.72
37856;BME280;23694;43.274;26.924;2024-03-02T12:45:17;98433.94;;;14.13;95.47
37856;BME280;23694;43.274;26.924;2024-03-02T12:47:50;98440.47;;;14.00;96.70
37856;BME280;23694;43.274;26.924;2024-03-02T12:50:17;98441.16;;;13.82;96.94
37856;BME280;23694;43.274;26.924;2024-03-02T12:52:43;98437.69;;;14.01;95.13
37856;BME280;23694;43.274;26.924;2024-03-02T12:55:09;98441.00;;;14.22;93.67
37856;BME280;23694;43.274;26.924;2024-03-02T12:57:36;98444.47;;;14.04;93.59